Time;durP1;ratioP1;P1;durP2;ratioP2;P2;SDS_P1;SDS_P2;PMS_P1;PMS_P2;Temp;Humidity;BMP_temperature;BMP_pressure;BME280_temperature;BME280_humidity;BME280_pressure;Samples;Min_cycle;Max_cycle;Signal;HPM_P1;HPM_P2
2023/07/19 00:02:09;;;;;;;5.30;2.78;;;19.70;99.90;;;;;;5082145;28;20017;-71
2023/07/19 00:04:35;;;;;;;3.67;2.85;;;19.70;99.90;;;;;;5078624;28;20512;-71
2023/07/19 00:07:01;;;;;;;4.95;2.95;;;19.60;99.90;;;;;;5080033;28;20095;-71
2023/07/19 00:09:26;;;;;;;3.65;2.53;;;19.60;99.90;;;;;;5083962;28;20036;-71
2023/07/19 00:11:52;;;;;;;5.13;2.88;;;19.50;99.90;;;;;;5076750;28;20052;-71
2023/07/19 00:14:18;;;;;;;4.18;2.65;;;19.50;99.90;;;;;;5079287;28;20028;-70
2023/07/19 00:16:44;;;;;;;6.22;3.17;;;19.50;99.90;;;;;;5083490;28;20372;-70
2023/07/19 00:19:10;;;;;;;5.82;3.85;;;19.50;99.90;;;;;;5075945;28;20020;-71
2023/07/19 00:21:35;;;;;;;6.55;3.83;;;19.40;99.90;;;;;;5082805;28;20081;-71
2023/07/19 00:24:01;;;;;;;4.47;3.60;;;19.40;99.90;;;;;;5085564;28;20662;-71
2023/07/19 00:26:27;;;;;;;6.35;3.70;;;19.40;99.90;;;;;;5084094;28;20032;-71
2023/07/19 00:28:52;;;;;;;3.83;3.45;;;19.40;99.90;;;;;;5082925;28;20028;-71
2023/07/19 00:31:18;;;;;;;8.68;4.10;;;19.40;99.90;;;;;;5080384;28;20464;-71
2023/07/19 00:33:44;;;;;;;6.68;4.68;;;19.40;99.90;;;;;;5077652;28;20431;-71
2023/07/19 00:36:09;;;;;;;8.45;3.72;;;19.40;99.90;;;;;;5083401;28;20346;-71
2023/07/19 00:38:35;;;;;;;4.85;3.85;;;19.40;99.90;;;;;;5082204;28;20233;-71
2023/07/19 00:41:01;;;;;;;8.52;4.03;;;19.40;99.90;;;;;;5080876;28;21070;-71
2023/07/19 00:43:26;;;;;;;6.65;4.60;;;19.40;99.90;;;;;;5079782;28;20033;-71
2023/07/19 00:45:54;;;;;;;7.20;5.03;;;19.30;99.90;;;;;;5080786;28;20473;-71
2023/07/19 00:48:20;;;;;;;8.45;4.50;;;19.30;99.90;;;;;;5080469;28;20036;-71
2023/07/19 00:50:48;;;;;;;7.63;3.97;;;19.30;99.90;;;;;;5088379;28;20035;-71
2023/07/19 00:53:15;;;;;;;6.57;3.85;;;19.30;99.90;;;;;;5091041;28;20082;-71
2023/07/19 00:55:41;;;;;;;7.43;4.18;;;19.20;99.90;;;;;;5085545;28;20091;-71
2023/07/19 00:58:07;;;;;;;7.55;4.38;;;19.20;99.90;;;;;;5089364;28;20032;-71
2023/07/19 01:00:33;;;;;;;9.20;4.60;;;19.20;99.90;;;;;;5103968;28;20020;-71
2023/07/19 01:02:59;;;;;;;5.45;4.03;;;19.20;99.90;;;;;;5087434;28;20077;-71
2023/07/19 01:05:27;;;;;;;7.55;4.18;;;19.20;99.90;;;;;;5086578;28;20081;-71
2023/07/19 01:07:53;;;;;;;7.15;4.90;;;19.20;99.90;;;;;;5089672;28;20473;-71
2023/07/19 01:10:19;;;;;;;12.63;5.07;;;19.10;99.90;;;;;;5083193;28;20024;-71
2023/07/19 01:13:07;;;;;;;8.25;4.90;;;19.10;99.90;;;;;;5084662;28;20035;-72
2023/07/19 01:15:33;;;;;;;9.52;5.57;;;19.10;99.90;;;;;;5084497;28;20058;-73
2023/07/19 01:17:59;;;;;;;7.63;5.30;;;19.00;99.90;;;;;;5083804;28;20021;-72
2023/07/19 01:20:25;;;;;;;6.25;4.85;;;19.10;99.90;;;;;;5089057;28;20031;-73
2023/07/19 01:22:51;;;;;;;7.18;4.85;;;19.00;99.90;;;;;;5088794;28;20036;-72
2023/07/19 01:25:16;;;;;;;7.93;5.32;;;19.00;99.90;;;;;;5084237;28;20413;-73
2023/07/19 01:27:42;;;;;;;7.60;4.93;;;19.00;99.90;;;;;;5084176;28;20031;-73
2023/07/19 01:30:08;;;;;;;7.95;4.85;;;19.00;99.90;;;;;;5081775;28;20124;-72
2023/07/19 01:32:34;;;;;;;9.65;4.75;;;19.00;99.90;;;;;;5082055;28;20029;-72
2023/07/19 01:34:59;;;;;;;7.90;5.18;;;19.00;99.90;;;;;;5081639;28;20073;-73
2023/07/19 01:37:28;;;;;;;9.60;4.63;;;18.90;99.90;;;;;;5086849;28;20028;-73
2023/07/19 01:39:53;;;;;;;7.68;4.65;;;19.00;99.90;;;;;;5083723;28;20020;-73
2023/07/19 01:42:19;;;;;;;6.47;4.63;;;19.00;99.90;;;;;;5082283;28;20166;-73
2023/07/19 01:44:45;;;;;;;9.35;4.80;;;18.90;99.90;;;;;;5081078;28;20036;-73
2023/07/19 01:47:10;;;;;;;6.63;4.15;;;18.90;99.90;;;;;;5084987;28;20032;-73
2023/07/19 01:49:38;;;;;;;5.13;4.43;;;19.00;99.90;;;;;;5081144;28;20111;-73
2023/07/19 01:52:04;;;;;;;5.20;4.03;;;19.00;99.90;;;;;;5088538;28;20106;-73
2023/07/19 01:54:30;;;;;;;7.32;4.72;;;19.00;99.90;;;;;;5084536;28;20651;-73
2023/07/19 01:56:55;;;;;;;11.68;3.90;;;19.00;99.90;;;;;;5083167;28;20024;-73
2023/07/19 01:59:21;;;;;;;5.90;4.28;;;19.00;99.90;;;;;;5089958;28;20074;-73
2023/07/19 02:01:47;;;;;;;11.85;4.72;;;19.00;99.90;;;;;;5080931;28;20066;-72
2023/07/19 02:04:12;;;;;;;4.53;4.07;;;19.00;99.90;;;;;;5082294;28;20036;-73
2023/07/19 02:06:38;;;;;;;8.80;4.53;;;19.00;99.90;;;;;;5080588;28;20024;-73
2023/07/19 02:09:04;;;;;;;7.38;4.30;;;19.00;99.90;;;;;;5083892;28;20560;-73
2023/07/19 02:11:29;;;;;;;7.68;4.22;;;19.00;99.90;;;;;;5079182;28;20039;-73
2023/07/19 02:13:55;;;;;;;6.43;4.20;;;18.90;99.90;;;;;;5078924;28;22102;-73
2023/07/19 02:16:21;;;;;;;8.43;4.47;;;18.90;99.90;;;;;;5075139;28;20100;-73
2023/07/19 02:18:46;;;;;;;7.78;4.40;;;18.90;99.90;;;;;;5077996;28;20050;-73
2023/07/19 02:21:12;;;;;;;6.10;4.07;;;18.80;99.90;;;;;;5081196;28;20063;-73
2023/07/19 02:23:38;;;;;;;6.57;3.63;;;18.90;99.90;;;;;;5076691;28;20036;-72
2023/07/19 02:26:03;;;;;;;8.55;4.40;;;18.90;99.90;;;;;;5079966;28;20443;-73
2023/07/19 02:28:29;;;;;;;6.78;4.22;;;18.90;99.90;;;;;;5087145;28;20069;-73
2023/07/19 02:30:55;;;;;;;4.38;3.97;;;18.80;99.90;;;;;;5084210;28;20035;-73
2023/07/19 02:33:20;;;;;;;7.82;4.75;;;18.80;99.90;;;;;;5089917;28;20039;-73
2023/07/19 02:35:54;;;;;;;9.43;4.82;;;18.80;99.90;;;;;;5082443;28;20032;-72
2023/07/19 02:38:20;;;;;;;5.80;4.50;;;18.80;99.90;;;;;;5088258;28;20574;-73
2023/07/19 02:40:45;;;;;;;10.10;5.53;;;18.80;99.90;;;;;;5080100;28;20016;-73
2023/07/19 02:43:11;;;;;;;4.60;3.70;;;18.80;99.90;;;;;;5085504;28;20098;-73
2023/07/19 02:45:37;;;;;;;5.78;3.95;;;18.70;99.90;;;;;;5082948;28;20016;-73
2023/07/19 02:48:03;;;;;;;8.13;4.25;;;18.80;99.90;;;;;;5081305;28;20085;-72
2023/07/19 02:50:28;;;;;;;9.05;5.65;;;18.80;99.90;;;;;;5081958;28;20032;-73
2023/07/19 02:52:54;;;;;;;8.57;4.50;;;18.80;99.90;;;;;;5081525;28;20036;-72
2023/07/19 02:55:19;;;;;;;7.90;4.30;;;18.80;99.90;;;;;;5081612;28;20526;-73
2023/07/19 02:57:45;;;;;;;9.45;4.50;;;18.80;99.90;;;;;;5079773;28;20044;-73
2023/07/19 03:00:11;;;;;;;9.50;4.35;;;18.70;99.90;;;;;;5078616;28;20028;-73
2023/07/19 03:02:37;;;;;;;7.75;5.35;;;18.80;99.90;;;;;;5084922;28;20395;-73
2023/07/19 03:05:04;;;;;;;5.45;4.45;;;18.70;99.90;;;;;;5089103;28;20016;-73
2023/07/19 03:07:30;;;;;;;6.75;4.18;;;18.70;99.90;;;;;;5084285;28;20028;-73
2023/07/19 03:09:55;;;;;;;6.80;4.75;;;18.80;99.90;;;;;;5081944;28;20453;-73
2023/07/19 03:12:21;;;;;;;7.03;3.80;;;18.70;99.90;;;;;;5080682;28;20032;-73
2023/07/19 03:14:46;;;;;;;6.65;4.75;;;18.70;99.90;;;;;;5084477;28;20017;-73
2023/07/19 03:17:12;;;;;;;6.88;4.40;;;18.70;99.90;;;;;;5083724;28;20460;-73
2023/07/19 03:19:38;;;;;;;9.27;4.75;;;18.70;99.90;;;;;;5081310;28;20040;-73
2023/07/19 03:22:04;;;;;;;7.45;4.35;;;18.70;99.90;;;;;;5079902;28;20369;-73
2023/07/19 03:24:30;;;;;;;8.30;4.55;;;18.60;99.90;;;;;;5079353;28;20032;-74
2023/07/19 03:26:55;;;;;;;6.45;4.55;;;18.50;99.90;;;;;;5082391;28;20069;-73
2023/07/19 03:29:21;;;;;;;6.80;5.07;;;18.60;99.90;;;;;;5075950;28;20100;-73
2023/07/19 03:31:47;;;;;;;8.88;4.25;;;18.60;99.90;;;;;;5084019;28;20079;-73
2023/07/19 03:34:13;;;;;;;6.50;4.55;;;18.60;99.90;;;;;;5079966;28;20394;-73
2023/07/19 03:36:39;;;;;;;4.85;4.32;;;18.50;99.90;;;;;;5078693;28;20361;-73
2023/07/19 03:39:04;;;;;;;8.18;4.88;;;18.60;99.90;;;;;;5085199;28;20171;-73
2023/07/19 03:41:30;;;;;;;9.40;4.93;;;18.50;99.90;;;;;;5079233;28;20031;-73
2023/07/19 03:43:55;;;;;;;9.10;4.85;;;18.60;99.90;;;;;;5085682;28;20525;-73
2023/07/19 03:46:21;;;;;;;9.10;4.65;;;18.50;99.90;;;;;;5085828;28;20016;-73
2023/07/19 03:48:47;;;;;;;6.55;4.78;;;18.40;99.90;;;;;;5082169;28;20025;-73
2023/07/19 03:51:12;;;;;;;9.32;4.65;;;18.50;99.90;;;;;;5084222;28;20017;-73
2023/07/19 03:53:38;;;;;;;6.63;4.43;;;18.50;99.90;;;;;;5082042;28;20443;-73
2023/07/19 03:56:04;;;;;;;6.10;4.65;;;18.50;99.90;;;;;;5083374;28;20016;-73
2023/07/19 03:58:30;;;;;;;8.02;5.05;;;18.50;99.90;;;;;;5084190;28;20033;-73
2023/07/19 04:00:58;;;;;;;7.00;4.75;;;18.50;99.90;;;;;;5087733;28;20074;-73
2023/07/19 04:03:25;;;;;;;10.45;5.53;;;18.60;99.90;;;;;;5087916;28;20103;-72
2023/07/19 04:05:53;;;;;;;6.53;3.90;;;18.60;99.90;;;;;;5078884;28;20070;-73
2023/07/19 04:08:18;;;;;;;6.88;3.80;;;18.60;99.90;;;;;;5084739;28;20023;-73
2023/07/19 04:10:44;;;;;;;6.95;4.03;;;18.60;99.90;;;;;;5081839;28;20024;-73
2023/07/19 04:13:11;;;;;;;11.55;5.10;;;18.60;99.90;;;;;;5086303;28;20056;-73
2023/07/19 04:15:37;;;;;;;7.75;5.30;;;18.60;99.90;;;;;;5083899;28;20448;-73
2023/07/19 04:18:03;;;;;;;13.90;4.93;;;18.60;99.90;;;;;;5083555;28;20030;-73
2023/07/19 04:20:29;;;;;;;4.72;3.70;;;18.60;99.90;;;;;;5081617;28;20028;-73
2023/07/19 04:22:55;;;;;;;4.13;3.05;;;18.70;99.90;;;;;;5082225;28;20016;-73
2023/07/19 04:25:21;;;;;;;6.78;3.55;;;18.70;99.90;;;;;;5080467;28;20028;-73
2023/07/19 04:27:47;;;;;;;4.65;3.60;;;18.70;99.90;;;;;;5083682;28;20028;-73
2023/07/19 04:30:13;;;;;;;10.98;3.97;;;18.70;99.90;;;;;;5087592;28;20020;-73
2023/07/19 04:32:39;;;;;;;3.97;3.35;;;18.70;99.90;;;;;;5084178;28;20031;-73
2023/07/19 04:35:08;;;;;;;6.95;3.60;;;18.70;99.90;;;;;;5086769;28;20028;-73
2023/07/19 04:37:35;;;;;;;4.93;3.30;;;18.60;99.90;;;;;;5085935;28;20512;-73
2023/07/19 04:40:00;;;;;;;4.15;3.05;;;18.70;99.90;;;;;;5080872;28;20049;-73
2023/07/19 04:42:28;;;;;;;4.72;3.55;;;18.70;99.90;;;;;;5085201;28;20118;-73
2023/07/19 04:44:53;;;;;;;6.65;4.18;;;18.70;99.90;;;;;;5084280;28;20025;-73
2023/07/19 04:47:20;;;;;;;10.77;4.30;;;18.80;99.90;;;;;;5086326;28;20373;-73
2023/07/19 04:49:45;;;;;;;4.70;3.60;;;18.70;99.90;;;;;;5079996;28;20081;-73
2023/07/19 04:52:11;;;;;;;10.10;3.83;;;18.80;99.90;;;;;;5081058;28;20037;-73
2023/07/19 04:54:37;;;;;;;4.85;3.25;;;18.80;99.90;;;;;;5086126;28;20100;-74
2023/07/19 04:57:03;;;;;;;5.22;4.15;;;18.80;99.90;;;;;;5081211;28;20021;-73
2023/07/19 04:59:28;;;;;;;4.13;3.55;;;18.90;99.90;;;;;;5084453;28;20043;-73
2023/07/19 05:01:54;;;;;;;9.05;3.40;;;18.90;99.90;;;;;;5082669;28;20468;-73
2023/07/19 05:04:20;;;;;;;4.78;3.10;;;18.90;99.90;;;;;;5078235;28;20354;-73
2023/07/19 05:06:46;;;;;;;3.35;3.05;;;18.90;99.90;;;;;;5085401;28;20008;-73
2023/07/19 05:09:12;;;;;;;7.47;3.75;;;18.80;99.90;;;;;;5083028;28;20086;-73
2023/07/19 05:11:39;;;;;;;4.60;3.40;;;18.90;99.90;;;;;;5086119;28;20028;-73
2023/07/19 05:14:05;;;;;;;3.80;3.50;;;18.90;99.90;;;;;;5083871;28;20028;-73
2023/07/19 05:16:33;;;;;;;4.25;3.13;;;19.00;99.90;;;;;;5079447;28;20104;-73
2023/07/19 05:18:58;;;;;;;5.15;2.92;;;18.90;99.90;;;;;;5083562;28;20024;-73
2023/07/19 05:21:24;;;;;;;6.10;3.63;;;19.00;99.90;;;;;;5082778;28;20529;-73
2023/07/19 05:23:49;;;;;;;3.47;3.28;;;19.00;99.90;;;;;;5082429;28;20031;-73
2023/07/19 05:26:15;;;;;;;6.70;5.18;;;19.00;99.90;;;;;;5082891;28;20027;-73
2023/07/19 05:28:41;;;;;;;6.25;3.47;;;19.10;99.90;;;;;;5078600;28;20024;-73
2023/07/19 05:31:08;;;;;;;4.18;3.60;;;19.10;99.90;;;;;;5082397;28;20051;-73
2023/07/19 05:33:34;;;;;;;7.97;3.80;;;19.20;99.90;;;;;;5090046;28;20055;-73
2023/07/19 05:36:00;;;;;;;4.22;3.08;;;19.10;99.90;;;;;;5087540;28;20012;-74
2023/07/19 05:38:26;;;;;;;3.95;3.35;;;19.20;99.90;;;;;;5082225;28;20032;-73
2023/07/19 05:40:52;;;;;;;8.05;2.92;;;19.20;99.90;;;;;;5086151;28;20028;-74
2023/07/19 05:43:18;;;;;;;6.65;3.80;;;19.30;99.90;;;;;;5080214;28;20028;-74
2023/07/19 05:45:44;;;;;;;11.70;5.88;;;19.30;99.90;;;;;;5078562;28;20020;-74
2023/07/19 05:48:10;;;;;;;9.50;5.53;;;19.30;99.90;;;;;;5078453;28;20162;-74
2023/07/19 05:50:37;;;;;;;9.45;6.70;;;19.30;99.90;;;;;;5080468;28;20448;-73
2023/07/19 05:53:03;;;;;;;13.55;8.13;;;19.30;99.90;;;;;;5081095;28;20028;-74
2023/07/19 05:55:29;;;;;;;14.85;10.02;;;19.40;99.90;;;;;;5087899;28;20107;-73
2023/07/19 05:57:55;;;;;;;21.63;9.88;;;19.50;99.90;;;;;;5079146;28;20028;-73
2023/07/19 06:00:24;;;;;;;16.55;10.80;;;19.50;99.90;;;;;;5080214;28;20035;-73
2023/07/19 06:02:53;;;;;;;17.63;11.18;;;19.60;99.90;;;;;;5079921;28;20035;-74
2023/07/19 06:05:19;;;;;;;17.33;10.65;;;19.60;99.90;;;;;;5083917;28;20011;-73
2023/07/19 06:07:46;;;;;;;19.77;12.23;;;19.70;99.90;;;;;;5085148;28;20012;-73
2023/07/19 06:10:12;;;;;;;16.83;9.95;;;19.70;99.90;;;;;;5079554;28;20051;-73
2023/07/19 06:12:38;;;;;;;21.08;10.95;;;19.70;99.90;;;;;;5087408;28;20024;-72
2023/07/19 06:15:05;;;;;;;16.85;9.73;;;19.70;99.90;;;;;;5082964;28;20133;-74
2023/07/19 06:17:31;;;;;;;17.45;10.05;;;19.80;99.90;;;;;;5083307;28;20025;-73
2023/07/19 06:19:56;;;;;;;16.27;9.60;;;19.90;99.90;;;;;;5083491;28;20393;-73
2023/07/19 06:22:22;;;;;;;18.55;9.25;;;19.90;99.90;;;;;;5082123;28;20033;-73
2023/07/19 06:24:48;;;;;;;16.10;8.13;;;19.90;99.90;;;;;;5088335;28;20153;-73
2023/07/19 06:27:16;;;;;;;16.52;8.77;;;20.00;99.90;;;;;;5081398;28;20059;-73
2023/07/19 06:29:42;;;;;;;15.27;8.32;;;20.10;99.90;;;;;;5084126;28;20016;-71
2023/07/19 06:32:08;;;;;;;13.25;7.78;;;20.10;99.90;;;;;;5082916;28;20447;-71
2023/07/19 06:34:34;;;;;;;15.95;7.25;;;20.20;99.90;;;;;;5083842;28;20541;-72
2023/07/19 06:37:01;;;;;;;14.93;7.22;;;20.20;99.90;;;;;;5083899;28;20034;-71
2023/07/19 06:39:28;;;;;;;18.27;7.50;;;20.30;99.90;;;;;;5087764;28;20016;-71
2023/07/19 06:41:54;;;;;;;9.75;7.15;;;20.40;99.90;;;;;;5074601;28;20024;-71
2023/07/19 06:44:20;;;;;;;15.27;7.47;;;20.30;99.90;;;;;;5085965;28;20183;-70
2023/07/19 06:46:45;;;;;;;11.23;6.88;;;20.40;99.90;;;;;;5081887;28;20024;-71
2023/07/19 06:49:11;;;;;;;17.38;7.07;;;20.40;99.90;;;;;;5081230;28;20024;-71
2023/07/19 06:51:37;;;;;;;16.00;6.18;;;20.50;99.90;;;;;;5080615;28;20489;-71
2023/07/19 06:54:02;;;;;;;10.45;5.60;;;20.50;99.90;;;;;;5087315;28;20032;-71
2023/07/19 06:56:28;;;;;;;10.77;5.55;;;20.50;99.90;;;;;;5079115;28;20032;-71
2023/07/19 06:58:54;;;;;;;9.93;5.90;;;20.50;99.90;;;;;;5078783;28;20115;-71
2023/07/19 07:01:20;;;;;;;12.70;4.80;;;20.60;99.90;;;;;;5080165;28;20027;-71
2023/07/19 07:03:45;;;;;;;10.13;5.18;;;20.60;99.90;;;;;;5080054;28;20027;-72
2023/07/19 07:06:11;;;;;;;9.63;5.15;;;20.60;99.90;;;;;;5086826;28;20074;-71
2023/07/19 07:08:37;;;;;;;7.53;4.20;;;20.70;99.90;;;;;;5081067;28;20514;-72
2023/07/19 07:11:04;;;;;;;8.52;4.13;;;20.80;99.90;;;;;;5082528;28;20023;-71
2023/07/19 07:13:30;;;;;;;7.72;4.75;;;20.80;99.90;;;;;;5078396;28;20492;-71
2023/07/19 07:15:58;;;;;;;9.23;4.72;;;20.80;99.90;;;;;;5077605;28;20500;-72
2023/07/19 07:18:24;;;;;;;12.52;5.20;;;20.80;99.90;;;;;;5081893;28;20016;-72
2023/07/19 07:20:53;;;;;;;8.85;5.10;;;20.90;99.90;;;;;;5081905;28;20040;-71
2023/07/19 07:23:19;;;;;;;11.07;5.10;;;20.90;99.90;;;;;;5075008;28;20032;-71
2023/07/19 07:25:44;;;;;;;8.55;4.95;;;20.90;99.90;;;;;;5081279;28;20031;-71
2023/07/19 07:28:10;;;;;;;9.38;5.13;;;21.00;99.90;;;;;;5084797;28;20028;-71
2023/07/19 07:30:36;;;;;;;9.38;4.70;;;21.10;99.90;;;;;;5086578;28;20052;-72
2023/07/19 07:33:03;;;;;;;10.85;4.63;;;21.10;99.90;;;;;;5088340;28;20488;-71
2023/07/19 07:35:29;;;;;;;7.13;4.50;;;21.10;99.90;;;;;;5085798;28;20012;-73
2023/07/19 07:37:55;;;;;;;7.30;4.68;;;21.20;99.90;;;;;;5079040;28;20059;-72
2023/07/19 07:40:27;;;;;;;11.25;5.35;;;21.30;99.90;;;;;;5081634;28;21194;-71
2023/07/19 07:42:52;;;;;;;8.57;4.70;;;21.30;99.90;;;;;;5076608;28;20088;-71
2023/07/19 07:45:18;;;;;;;12.00;4.82;;;21.30;99.90;;;;;;5078666;28;20021;-71
2023/07/19 07:47:44;;;;;;;7.40;4.70;;;21.40;99.90;;;;;;5080258;28;20158;-71
2023/07/19 07:50:10;;;;;;;10.55;4.53;;;21.50;99.90;;;;;;5084492;28;20028;-71
2023/07/19 07:52:36;;;;;;;14.80;4.30;;;21.50;99.90;;;;;;5084516;28;20046;-71
2023/07/19 07:55:02;;;;;;;8.75;4.47;;;21.60;99.90;;;;;;5080494;28;20492;-71
2023/07/19 07:57:30;;;;;;;8.73;3.90;;;21.80;99.90;;;;;;5085606;28;20028;-71
2023/07/19 07:59:56;;;;;;;9.32;3.85;;;22.00;99.90;;;;;;5080264;28;20056;-71
2023/07/19 08:02:21;;;;;;;9.32;4.20;;;22.20;99.90;;;;;;5088462;28;20498;-71
2023/07/19 08:04:47;;;;;;;11.07;3.65;;;22.30;99.90;;;;;;5091140;28;20051;-71
2023/07/19 08:07:13;;;;;;;8.85;3.80;;;22.40;99.90;;;;;;5086828;28;20025;-72
2023/07/19 08:09:39;;;;;;;5.97;2.80;;;22.50;99.90;;;;;;5082682;28;20491;-72
2023/07/19 08:12:05;;;;;;;7.05;2.72;;;22.50;99.90;;;;;;5079442;28;20064;-73
2023/07/19 08:14:31;;;;;;;8.23;2.30;;;22.40;99.90;;;;;;5086017;28;20031;-73
2023/07/19 08:16:56;;;;;;;7.82;2.42;;;22.40;99.90;;;;;;5088975;28;20025;-73
2023/07/19 08:19:22;;;;;;;5.57;1.88;;;22.50;99.90;;;;;;5086534;28;20024;-73
2023/07/19 08:21:48;;;;;;;6.72;2.30;;;22.40;99.90;;;;;;5086460;28;20074;-73
2023/07/19 08:24:13;;;;;;;5.07;2.10;;;22.40;99.90;;;;;;5085244;28;20020;-73
2023/07/19 08:26:39;;;;;;;6.78;2.60;;;22.30;99.90;;;;;;5080091;28;20052;-74
2023/07/19 08:29:05;;;;;;;4.95;1.90;;;22.40;99.90;;;;;;5083955;28;20096;-72
2023/07/19 08:31:31;;;;;;;3.53;1.83;;;22.50;99.90;;;;;;5089689;28;20028;-72
2023/07/19 08:33:57;;;;;;;6.95;2.08;;;22.60;99.90;;;;;;5091385;28;20038;-72
2023/07/19 08:36:23;;;;;;;3.85;1.73;;;22.60;99.90;;;;;;5094167;28;20090;-72
2023/07/19 08:38:49;;;;;;;5.20;2.20;;;22.70;99.90;;;;;;5083500;28;20499;-72
2023/07/19 08:41:20;;;;;;;7.65;2.40;;;22.70;99.90;;;;;;5086078;28;20111;-73
2023/07/19 08:43:47;;;;;;;5.93;2.20;;;22.90;99.90;;;;;;5085635;28;20023;-72
2023/07/19 08:46:15;;;;;;;5.13;2.25;;;23.00;99.90;;;;;;5084216;28;20090;-71
2023/07/19 08:48:47;;;;;;;5.05;2.20;;;23.10;99.90;;;;;;5080054;28;20033;-72
2023/07/19 08:51:14;;;;;;;4.50;2.47;;;23.40;99.90;;;;;;5080648;28;20044;-73
2023/07/19 08:53:40;;;;;;;4.38;2.53;;;23.50;99.90;;;;;;5080115;28;20310;-71
2023/07/19 08:56:06;;;;;;;8.98;2.83;;;23.70;99.90;;;;;;5084063;28;20025;-72
2023/07/19 08:58:37;;;;;;;7.45;3.03;;;23.80;99.90;;;;;;5080873;28;20032;-72
2023/07/19 09:01:03;;;;;;;8.65;2.38;;;24.00;99.90;;;;;;5085194;28;20119;-72
2023/07/19 09:03:29;;;;;;;5.75;2.50;;;24.10;99.90;;;;;;5079531;28;20414;-72
2023/07/19 09:05:54;;;;;;;7.20;2.63;;;24.20;99.90;;;;;;5084439;28;20025;-72
2023/07/19 09:08:20;;;;;;;3.03;2.10;;;24.10;99.90;;;;;;5082014;28;20396;-72
2023/07/19 09:10:46;;;;;;;6.97;2.60;;;24.00;99.90;;;;;;5082441;28;20468;-71
2023/07/19 09:13:20;;;;;;;6.80;2.58;;;24.10;99.90;;;;;;5086056;28;20416;-72
2023/07/19 09:15:49;;;;;;;9.38;2.53;;;24.10;99.90;;;;;;5079884;28;20106;-72
2023/07/19 09:18:14;;;;;;;5.75;2.80;;;24.20;99.90;;;;;;5081276;28;20020;-71
2023/07/19 09:20:40;;;;;;;9.35;2.70;;;24.10;99.90;;;;;;5087661;28;20023;-71
2023/07/19 09:23:06;;;;;;;5.50;2.70;;;24.10;99.90;;;;;;5091876;28;20020;-71
2023/07/19 09:25:49;;;;;;;8.10;3.15;;;24.10;99.90;;;;;;5086089;28;20035;-72
2023/07/19 09:28:15;;;;;;;8.15;3.05;;;24.10;99.90;;;;;;5080235;28;20099;-72
2023/07/19 09:30:56;;;;;;;7.30;3.03;;;24.10;99.90;;;;;;5087900;28;20024;-71
2023/07/19 09:33:22;;;;;;;5.78;2.55;;;24.40;99.90;;;;;;5084558;28;20032;-71
2023/07/19 09:35:54;;;;;;;9.18;2.80;;;24.30;99.90;;;;;;5081291;28;20376;-72
2023/07/19 09:38:23;;;;;;;6.10;2.75;;;24.40;99.90;;;;;;5084858;28;20024;-71
2023/07/19 09:40:53;;;;;;;8.20;2.88;;;24.70;99.90;;;;;;5096825;28;20537;-69
2023/07/19 09:43:20;;;;;;;5.47;2.67;;;24.80;99.90;;;;;;5079063;28;20090;-70
2023/07/19 09:45:48;;;;;;;6.95;2.50;;;24.80;99.90;;;;;;5083591;28;20491;-71
2023/07/19 09:48:19;;;;;;;4.35;2.40;;;25.00;99.90;;;;;;5083929;28;20396;-72
2023/07/19 09:50:52;;;;;;;4.32;2.20;;;25.10;99.90;;;;;;5081848;28;20030;-70
2023/07/19 09:53:22;;;;;;;5.47;1.70;;;25.20;99.90;;;;;;5086323;28;20064;-69
2023/07/19 09:55:49;;;;;;;4.32;2.08;;;25.30;99.90;;;;;;5078678;28;20078;-69
2023/07/19 09:58:16;;;;;;;3.97;1.60;;;25.50;99.90;;;;;;5079792;28;20052;-70
2023/07/19 10:00:42;;;;;;;2.75;1.67;;;25.40;99.90;;;;;;5080996;28;20028;-72
2023/07/19 10:03:08;;;;;;;4.20;1.60;;;25.30;99.90;;;;;;5090385;28;20016;-69
2023/07/19 10:05:36;;;;;;;3.60;1.50;;;25.40;99.90;;;;;;5079642;28;20035;-71
2023/07/19 10:08:05;;;;;;;4.57;1.63;;;25.30;99.90;;;;;;5080780;28;20024;-69
2023/07/19 10:10:39;;;;;;;3.75;1.73;;;25.10;99.90;;;;;;5083552;28;20086;-76
2023/07/19 10:13:06;;;;;;;5.28;2.15;;;25.30;99.90;;;;;;5091720;28;20028;-71
2023/07/19 10:15:32;;;;;;;8.35;2.20;;;25.50;99.90;;;;;;5082354;28;20028;-74
2023/07/19 10:17:58;;;;;;;6.38;1.90;;;25.40;99.90;;;;;;5083122;28;20020;-75
2023/07/19 10:20:34;;;;;;;6.40;1.90;;;25.30;99.90;;;;;;5082307;28;20105;-76
2023/07/19 10:23:05;;;;;;;4.90;2.08;;;25.10;99.90;;;;;;5082000;28;20024;-75
2023/07/19 10:25:49;;;;;;;6.05;2.20;;;25.20;99.90;;;;;;5089566;28;20119;-76
2023/07/19 10:28:30;;;;;;;5.20;2.22;;;25.00;99.90;;;;;;5081987;28;20025;-70
2023/07/19 10:30:56;;;;;;;8.00;2.33;;;25.10;99.90;;;;;;5086477;28;20027;-71
2023/07/19 10:33:23;;;;;;;8.05;2.97;;;25.10;99.90;;;;;;5077897;28;20090;-72
2023/07/19 10:35:54;;;;;;;3.83;2.20;;;25.10;99.90;;;;;;5080622;28;20028;-73
2023/07/19 10:38:25;;;;;;;5.25;2.85;;;25.00;99.90;;;;;;5081424;28;20028;-73
2023/07/19 10:40:58;;;;;;;6.38;3.13;;;24.90;99.90;;;;;;5083277;28;20020;-73
2023/07/19 10:43:25;;;;;;;9.27;3.28;;;24.80;99.90;;;;;;5077306;28;20397;-71
2023/07/19 10:45:52;;;;;;;7.43;3.17;;;24.80;99.90;;;;;;5081804;28;20020;-72
2023/07/19 10:48:23;;;;;;;7.10;3.08;;;24.80;99.90;;;;;;5083456;28;20043;-76
2023/07/19 10:50:49;;;;;;;10.23;3.13;;;24.90;99.90;;;;;;5083058;28;20370;-72
2023/07/19 10:53:15;;;;;;;7.18;3.05;;;25.10;99.90;;;;;;5082643;28;20058;-78
2023/07/19 10:55:41;;;;;;;6.78;3.05;;;25.20;99.90;;;;;;5077814;28;20035;-72
2023/07/19 10:58:07;;;;;;;6.97;2.95;;;25.30;99.90;;;;;;5086144;28;20042;-72
2023/07/19 11:00:37;;;;;;;11.00;3.65;;;25.30;99.90;;;;;;5087513;28;20099;-72
2023/07/19 11:03:04;;;;;;;6.28;3.35;;;25.50;99.90;;;;;;5081331;28;20022;-75
2023/07/19 11:05:29;;;;;;;7.30;3.78;;;25.40;99.90;;;;;;5085782;28;20376;-75
2023/07/19 11:07:55;;;;;;;7.90;4.00;;;25.50;99.90;;;;;;5087423;28;20477;-75
2023/07/19 11:10:21;;;;;;;8.32;3.42;;;25.30;99.90;;;;;;5076862;28;20031;-76
2023/07/19 11:12:47;;;;;;;8.60;3.53;;;25.30;99.90;;;;;;5081490;28;20027;-70
2023/07/19 11:15:14;;;;;;;8.50;3.60;;;25.20;99.90;;;;;;5089015;28;20036;-76
2023/07/19 11:17:40;;;;;;;8.32;3.53;;;25.10;99.90;;;;;;5078176;28;20073;-74
2023/07/19 11:20:08;;;;;;;7.97;3.47;;;25.00;99.90;;;;;;5080220;28;20028;-69
2023/07/19 11:22:33;;;;;;;10.10;3.40;;;24.90;99.90;;;;;;5069492;28;20032;-76
2023/07/19 11:24:59;;;;;;;8.10;3.72;;;24.90;99.90;;;;;;5086415;28;20146;-73
2023/07/19 11:27:35;;;;;;;5.28;2.38;;;25.00;99.90;;;;;;5078486;28;20031;-70
2023/07/19 11:30:01;;;;;;;5.30;2.55;;;25.10;99.90;;;;;;5080611;28;20031;-70
2023/07/19 11:32:27;;;;;;;5.28;2.60;;;25.10;99.90;;;;;;5079934;28;20040;-69
2023/07/19 11:34:56;;;;;;;6.88;2.65;;;25.10;99.90;;;;;;5079287;28;20031;-73
2023/07/19 11:37:27;;;;;;;7.43;1.90;;;25.20;99.90;;;;;;5081530;28;20154;-70
2023/07/19 11:39:57;;;;;;;8.45;2.50;;;25.20;99.90;;;;;;5084394;28;20024;-75
2023/07/19 11:42:43;;;;;;;5.40;2.70;;;25.00;99.90;;;;;;5084100;28;20016;-74
2023/07/19 11:45:10;;;;;;;3.95;2.88;;;24.80;99.90;;;;;;5086302;28;20047;-76
2023/07/19 11:47:36;;;;;;;4.22;2.58;;;24.70;99.90;;;;;;5084219;28;20048;-75
2023/07/19 11:50:03;;;;;;;5.07;2.30;;;24.60;99.90;;;;;;5079964;28;20016;-69
2023/07/19 11:52:29;;;;;;;6.07;2.53;;;24.60;99.90;;;;;;5084249;28;20109;-75
2023/07/19 11:54:55;;;;;;;4.70;2.50;;;24.70;99.90;;;;;;5081470;28;20154;-70
2023/07/19 11:57:21;;;;;;;7.63;3.10;;;24.80;99.90;;;;;;5083496;28;20034;-75
2023/07/19 11:59:48;;;;;;;5.93;3.20;;;24.90;99.90;;;;;;5077637;28;20040;-76
2023/07/19 12:02:15;;;;;;;6.82;3.13;;;24.90;99.90;;;;;;5079312;28;20025;-74
2023/07/19 12:04:40;;;;;;;9.25;2.80;;;24.90;99.90;;;;;;5082979;28;20917;-73
2023/07/19 12:07:06;;;;;;;5.75;3.00;;;24.90;99.90;;;;;;5076859;28;20056;-70
2023/07/19 12:09:32;;;;;;;9.32;2.92;;;24.80;99.90;;;;;;5079510;28;20029;-69
2023/07/19 12:11:57;;;;;;;5.90;2.97;;;24.80;99.90;;;;;;5074380;28;20036;-74
2023/07/19 12:14:23;;;;;;;7.75;3.05;;;24.60;99.90;;;;;;5076437;28;20036;-72
2023/07/19 12:16:49;;;;;;;6.45;2.30;;;24.50;99.90;;;;;;5081580;28;20024;-71
2023/07/19 12:19:15;;;;;;;5.60;1.95;;;24.40;99.90;;;;;;5082277;28;20474;-71
2023/07/19 12:21:41;;;;;;;3.85;1.95;;;24.20;99.90;;;;;;5082646;28;20024;-70
2023/07/19 12:24:06;;;;;;;7.47;2.10;;;24.10;99.90;;;;;;5077266;28;20066;-69
2023/07/19 12:26:34;;;;;;;4.20;1.40;;;24.00;99.90;;;;;;5077693;28;20028;-70
2023/07/19 12:28:59;;;;;;;2.90;1.50;;;24.00;99.90;;;;;;5083001;28;20024;-76
2023/07/19 12:31:25;;;;;;;3.58;1.38;;;24.00;99.90;;;;;;5080244;28;20028;-70
2023/07/19 12:33:51;;;;;;;6.35;1.60;;;23.90;99.90;;;;;;5092694;28;20032;-75
2023/07/19 12:36:17;;;;;;;2.33;1.00;;;23.90;99.90;;;;;;5079052;28;20354;-73
2023/07/19 12:38:42;;;;;;;3.17;1.10;;;23.90;99.90;;;;;;5085872;28;20559;-73
2023/07/19 12:41:08;;;;;;;1.73;1.00;;;23.80;99.90;;;;;;5086454;28;20018;-71
2023/07/19 12:43:34;;;;;;;4.40;1.55;;;23.80;99.90;;;;;;5084126;28;20559;-73